createdAt,value
2017-06-11T00:00:01.624Z,61.88
2017-06-11T00:01:01.929Z,61.69
2017-06-11T00:02:01.922Z,61.98
2017-06-11T00:03:01.921Z,61.98
2017-06-11T00:04:01.917Z,61.98
2017-06-11T00:05:01.917Z,61.59
2017-06-11T00:06:01.914Z,61.69
2017-06-11T00:07:01.909Z,60.92
2017-06-11T00:08:01.905Z,61.3
2017-06-11T00:09:01.902Z,60.82
2017-06-11T00:10:01.899Z,61.11
2017-06-11T00:11:01.895Z,61.3
2017-06-11T00:12:01.892Z,61.11
2017-06-11T00:13:01.888Z,61.3
2017-06-11T00:14:01.887Z,61.02
2017-06-11T00:15:01.882Z,60.92
2017-06-11T00:16:01.881Z,61.21
2017-06-11T00:17:01.877Z,61.02
2017-06-11T00:18:01.876Z,61.21
2017-06-11T00:19:01.872Z,61.02
2017-06-11T00:20:01.868Z,60.82
2017-06-11T00:21:01.867Z,61.21
2017-06-11T00:22:01.871Z,60.82
2017-06-11T00:23:01.860Z,61.02
2017-06-11T00:24:01.856Z,61.3
2017-06-11T00:25:01.857Z,61.11
2017-06-11T00:26:01.851Z,61.4
2017-06-11T00:27:01.851Z,61.4
2017-06-11T00:28:01.846Z,60.92
2017-06-11T00:29:01.537Z,61.21
2017-06-11T00:30:01.840Z,61.11
2017-06-11T00:31:01.832Z,60.72
2017-06-11T00:32:01.534Z,60.79
2017-06-11T00:33:01.829Z,60.41
2017-06-11T00:34:01.825Z,60.79
2017-06-11T00:35:01.820Z,59.83
2017-06-11T00:36:01.818Z,59.55
2017-06-11T00:37:01.818Z,59.16
2017-06-11T00:38:01.814Z,58.97
2017-06-11T00:39:01.808Z,59.36
2017-06-11T00:40:01.805Z,59.23
2017-06-11T00:41:01.803Z,58.78
2017-06-11T00:42:01.799Z,58.97
2017-06-11T00:43:01.797Z,58.59
2017-06-11T00:44:01.818Z,58.69
2017-06-11T00:45:01.789Z,58.46
2017-06-11T00:46:01.789Z,58.27
2017-06-11T00:47:01.784Z,58.08
2017-06-11T00:48:01.477Z,58.17
2017-06-11T00:49:01.782Z,58.27
2017-06-11T00:50:01.773Z,58.27
2017-06-11T00:51:01.770Z,58.17
2017-06-11T00:52:01.768Z,58.27
2017-06-11T00:53:01.460Z,58.27
2017-06-11T00:54:01.759Z,58.27
2017-06-11T00:55:01.756Z,58.27
2017-06-11T00:56:01.772Z,58.08
2017-06-11T00:57:01.749Z,58.08
2017-06-11T00:58:01.745Z,58.56
2017-06-11T00:59:01.743Z,58.34
2017-06-11T01:00:01.738Z,58.44
2017-06-11T01:01:01.735Z,58.34
2017-06-11T01:02:01.731Z,58.34
2017-06-11T01:03:01.732Z,58.34
2017-06-11T01:04:01.725Z,58.15
2017-06-11T01:05:01.723Z,58.62
2017-06-11T01:06:01.717Z,58.72
2017-06-11T01:07:01.715Z,58.72
2017-06-11T01:08:01.710Z,58.91
2017-06-11T01:09:01.707Z,58.81
2017-06-11T01:10:01.707Z,58.81
2017-06-11T01:11:01.702Z,58.72
2017-06-11T01:12:01.698Z,59.11
2017-06-11T01:13:01.706Z,59.01
2017-06-11T01:14:01.688Z,59.11
2017-06-11T01:15:01.685Z,59.08
2017-06-11T01:16:01.381Z,59.01
2017-06-11T01:17:01.677Z,58.88
2017-06-11T01:18:01.371Z,59.27
2017-06-11T01:19:01.670Z,59.27
2017-06-11T01:20:01.666Z,59.55
2017-06-11T01:21:01.660Z,59.36
2017-06-11T01:22:01.659Z,59.45
2017-06-11T01:23:01.655Z,59.45
2017-06-11T01:24:01.650Z,59.36
2017-06-11T01:25:01.648Z,59.36
2017-06-11T01:26:01.642Z,59.08
2017-06-11T01:27:01.643Z,59.17
2017-06-11T01:28:01.634Z,59.27
2017-06-11T01:29:01.632Z,59.27
2017-06-11T01:30:01.628Z,59.36
2017-06-11T01:31:01.623Z,59.17
2017-06-11T01:32:01.618Z,59.27
2017-06-11T01:33:01.619Z,59.45
2017-06-11T01:34:01.612Z,59.17
2017-06-11T01:35:01.609Z,59.27
2017-06-11T01:36:01.602Z,59.27
2017-06-11T01:37:01.600Z,59.17
2017-06-11T01:38:01.597Z,59.17
2017-06-11T01:39:01.591Z,59.08
2017-06-11T01:40:01.587Z,59.17
2017-06-11T01:41:01.584Z,59.08
2017-06-11T01:42:01.582Z,59.08
2017-06-11T01:43:01.574Z,59.36
2017-06-11T01:44:01.571Z,59.08
2017-06-11T01:45:01.569Z,59.17
2017-06-11T01:46:01.596Z,59.27
2017-06-11T01:47:01.258Z,59.17
2017-06-11T01:48:01.556Z,59.27
2017-06-11T01:49:01.552Z,59.17
2017-06-11T01:50:01.584Z,59.45
2017-06-11T01:51:01.545Z,59.45
2017-06-11T01:52:01.541Z,59.45
2017-06-11T01:53:01.535Z,59.27
2017-06-11T01:54:01.533Z,59.36
2017-06-11T01:55:01.528Z,59.27
2017-06-11T01:56:01.524Z,59.36
2017-06-11T01:57:01.520Z,59.3
2017-06-11T01:58:01.519Z,59.27
2017-06-11T01:59:01.514Z,59.39
2017-06-11T02:00:01.518Z,59.39
2017-06-11T02:01:01.503Z,59.39
2017-06-11T02:02:01.502Z,59.39
2017-06-11T02:03:01.497Z,59.39
2017-06-11T02:04:01.496Z,59.3
2017-06-11T02:05:01.489Z,59.39
2017-06-11T02:06:01.485Z,59.3
2017-06-11T02:07:01.485Z,59.3
2017-06-11T02:08:01.476Z,59.3
2017-06-11T02:09:01.473Z,59.2
2017-06-11T02:10:01.471Z,59.48
2017-06-11T02:11:01.468Z,59.3
2017-06-11T02:12:01.460Z,59.39
2017-06-11T02:13:01.457Z,59.39
2017-06-11T02:14:01.455Z,59.39
2017-06-11T02:15:01.453Z,59.3
2017-06-11T02:16:01.450Z,59.48
2017-06-11T02:17:01.442Z,59.3
2017-06-11T02:18:01.439Z,59.3
2017-06-11T02:19:01.433Z,59.2
2017-06-11T02:20:01.128Z,59.39
2017-06-11T02:21:01.123Z,59.39
2017-06-11T02:22:01.119Z,59.27
2017-06-11T02:23:01.425Z,59.27
2017-06-11T02:24:01.420Z,59.17
2017-06-11T02:25:01.419Z,59.08
2017-06-11T02:26:01.406Z,58.79
2017-06-11T02:27:01.403Z,59.17
2017-06-11T02:28:01.402Z,59.27
2017-06-11T02:29:01.396Z,59.27
2017-06-11T02:30:01.390Z,59.55
2017-06-11T02:31:01.388Z,59.55
2017-06-11T02:32:01.385Z,59.55
2017-06-11T02:33:01.378Z,59.45
2017-06-11T02:34:01.381Z,59.75
2017-06-11T02:35:01.372Z,59.55
2017-06-11T02:36:01.369Z,59.81
2017-06-11T02:37:01.364Z,59.81
2017-06-11T02:38:01.359Z,59.81
2017-06-11T02:39:01.355Z,59.81
2017-06-11T02:40:01.353Z,60.29
2017-06-11T02:41:01.347Z,60.38
2017-06-11T02:42:01.343Z,60.29
2017-06-11T02:43:01.637Z,60.19
2017-06-11T02:44:01.335Z,60.1
2017-06-11T02:45:01.329Z,60
2017-06-11T02:46:01.325Z,60.19
2017-06-11T02:47:01.322Z,60.1
2017-06-11T02:48:01.317Z,60.1
2017-06-11T02:49:01.313Z,60.1
2017-06-11T02:50:01.310Z,60.1
2017-06-11T02:51:01.305Z,60.1
2017-06-11T02:52:01.299Z,60.1
2017-06-11T02:53:01.296Z,59.81
2017-06-11T02:54:01.296Z,59.91
2017-06-11T02:55:01.289Z,59.91
2017-06-11T02:56:01.318Z,60.19
2017-06-11T02:57:01.281Z,60.1
2017-06-11T02:58:01.275Z,60
2017-06-11T02:59:01.275Z,60
2017-06-11T03:00:01.264Z,60.38
2017-06-11T03:01:01.261Z,60.1
2017-06-11T03:02:00.953Z,60.26
2017-06-11T03:03:00.948Z,60.1
2017-06-11T03:04:00.945Z,60.29
2017-06-11T03:05:00.941Z,60.29
2017-06-11T03:06:01.239Z,60.19
2017-06-11T03:07:01.235Z,60.38
2017-06-11T03:08:01.232Z,60.29
2017-06-11T03:09:01.227Z,60.19
2017-06-11T03:10:00.923Z,60.38
2017-06-11T03:11:00.915Z,60.19
2017-06-11T03:12:01.214Z,60.19
2017-06-11T03:13:01.211Z,60
2017-06-11T03:14:01.210Z,60.19
2017-06-11T03:15:01.203Z,60.1
2017-06-11T03:16:00.892Z,59.81
2017-06-11T03:17:01.193Z,60
2017-06-11T03:18:01.187Z,60.13
2017-06-11T03:19:01.186Z,60.03
2017-06-11T03:20:01.182Z,60.13
2017-06-11T03:21:01.177Z,60.22
2017-06-11T03:22:00.868Z,60.32
2017-06-11T03:23:01.166Z,60.22
2017-06-11T03:24:01.162Z,60.22
2017-06-11T03:25:01.159Z,60.22
2017-06-11T03:26:01.156Z,60.22
2017-06-11T03:27:00.849Z,60.32
2017-06-11T03:28:01.146Z,60.13
2017-06-11T03:29:01.142Z,60.44
2017-06-11T03:30:01.138Z,60.25
2017-06-11T03:31:01.136Z,59.87
2017-06-11T03:32:01.129Z,59.77
2017-06-11T03:33:01.126Z,59.87
2017-06-11T03:34:01.126Z,59.87
2017-06-11T03:35:01.118Z,59.87
2017-06-11T03:36:01.113Z,59.87
2017-06-11T03:37:01.109Z,59.77
2017-06-11T03:38:01.111Z,59.77
2017-06-11T03:39:01.104Z,59.77
2017-06-11T03:40:01.102Z,59.58
2017-06-11T03:41:00.794Z,59.58
2017-06-11T03:42:01.091Z,59.61
2017-06-11T03:43:01.086Z,59.61
2017-06-11T03:44:01.084Z,59.33
2017-06-11T03:45:01.080Z,59.23
2017-06-11T03:46:01.077Z,59.13
2017-06-11T03:47:01.073Z,59.23
2017-06-11T03:48:01.069Z,59.13
2017-06-11T03:49:01.063Z,59.52
2017-06-11T03:50:01.060Z,59.61
2017-06-11T03:51:01.057Z,59.13
2017-06-11T03:52:01.053Z,59.13
2017-06-11T03:53:01.049Z,59.42
2017-06-11T03:54:00.747Z,59.33
2017-06-11T03:55:01.045Z,59.23
2017-06-11T03:56:01.039Z,59.42
2017-06-11T03:57:01.036Z,59.33
2017-06-11T03:58:01.032Z,59.23
2017-06-11T03:59:01.029Z,58.94
2017-06-11T04:00:01.026Z,59.33
2017-06-11T04:01:01.025Z,59.13
2017-06-11T04:02:01.017Z,59.04
2017-06-11T04:03:01.018Z,59.13
2017-06-11T04:04:01.011Z,59.13
2017-06-11T04:05:01.009Z,59.23
2017-06-11T04:06:01.005Z,59.13
2017-06-11T04:07:01.000Z,59.13
2017-06-11T04:08:00.998Z,59.33
2017-06-11T04:09:00.993Z,59.52
2017-06-11T04:10:00.991Z,59.13
2017-06-11T04:11:00.984Z,59.13
2017-06-11T04:12:00.982Z,59.33
2017-06-11T04:13:00.979Z,59.61
2017-06-11T04:14:00.672Z,59.13
2017-06-11T04:15:00.971Z,59.61
2017-06-11T04:16:00.970Z,59.61
2017-06-11T04:17:00.964Z,59.33
2017-06-11T04:18:00.961Z,59.33
2017-06-11T04:19:00.960Z,59.42
2017-06-11T04:20:00.958Z,59.61
2017-06-11T04:21:00.951Z,59.71
2017-06-11T04:22:00.947Z,59.13
2017-06-11T04:23:00.943Z,59.61
2017-06-11T04:24:00.971Z,59.42
2017-06-11T04:25:00.937Z,59.61
2017-06-11T04:26:00.935Z,59.33
2017-06-11T04:27:00.931Z,59.04
2017-06-11T04:28:00.925Z,59.13
2017-06-11T04:29:00.925Z,59.42
2017-06-11T04:30:00.920Z,59.13
2017-06-11T04:31:00.915Z,59.42
2017-06-11T04:32:00.911Z,59.8
2017-06-11T04:33:00.611Z,59.06
2017-06-11T04:34:00.905Z,59.16
2017-06-11T04:35:00.901Z,59.45
2017-06-11T04:36:00.899Z,59.36
2017-06-11T04:37:00.899Z,58.97
2017-06-11T04:38:00.892Z,59.26
2017-06-11T04:39:00.888Z,59.16
2017-06-11T04:40:00.885Z,59.36
2017-06-11T04:41:00.882Z,59.36
2017-06-11T04:42:00.878Z,59.58
2017-06-11T04:43:00.876Z,59.48
2017-06-11T04:44:00.873Z,59.58
2017-06-11T04:45:00.567Z,59.09
2017-06-11T04:46:00.865Z,59.67
2017-06-11T04:47:00.864Z,59.61
2017-06-11T04:48:00.861Z,59.22
2017-06-11T04:49:00.858Z,59.16
2017-06-11T04:50:00.857Z,59.19
2017-06-11T04:51:00.855Z,59.02
2017-06-11T04:52:00.889Z,59.05
2017-06-11T04:53:00.850Z,58.98
2017-06-11T04:54:00.849Z,58.82
2017-06-11T04:55:00.849Z,58.27
2017-06-11T04:56:00.848Z,58.69
2017-06-11T04:57:00.851Z,58.26
2017-06-11T04:58:00.851Z,57.42
2017-06-11T04:59:00.851Z,56.96
2017-06-11T05:00:00.853Z,56.54
2017-06-11T05:01:00.855Z,55.31
2017-06-11T05:02:00.859Z,54.49
2017-06-11T05:03:00.860Z,53.75
2017-06-11T05:04:00.868Z,52.71
2017-06-11T05:05:00.868Z,51.89
2017-06-11T05:06:00.569Z,50.84
2017-06-11T05:07:00.574Z,49.32
2017-06-11T05:08:00.883Z,47.91
2017-06-11T05:09:00.890Z,46.37
2017-06-11T05:10:00.898Z,44.55
2017-06-11T05:11:00.903Z,42.82
2017-06-11T05:12:00.910Z,41.99
2017-06-11T05:13:00.917Z,40.83
2017-06-11T05:14:00.925Z,39.2
2017-06-11T05:15:00.934Z,37.95
2017-06-11T05:16:00.942Z,37.09
2017-06-11T05:17:00.955Z,36.33
2017-06-11T05:18:00.958Z,34.89
2017-06-11T05:19:00.971Z,33.82
2017-06-11T05:20:00.978Z,32.86
2017-06-11T05:21:00.990Z,31.7
2017-06-11T05:22:00.998Z,30.25
2017-06-11T05:23:01.007Z,29.58
2017-06-11T05:24:01.019Z,29.88
2017-06-11T05:25:01.029Z,29.39
2017-06-11T05:26:00.740Z,28.92
2017-06-11T05:27:01.051Z,28.34
2017-06-11T05:28:01.060Z,27.85
2017-06-11T05:29:00.771Z,26.89
2017-06-11T05:30:01.084Z,26.41
2017-06-11T05:31:01.094Z,25.93
2017-06-11T05:32:01.107Z,25.26
2017-06-11T05:33:01.120Z,25.07
2017-06-11T05:34:01.131Z,24.08
2017-06-11T05:35:01.143Z,23.8
2017-06-11T05:36:01.156Z,23.61
2017-06-11T05:37:01.166Z,23.91
2017-06-11T05:38:00.876Z,22.93
2017-06-11T05:39:01.193Z,21.66
2017-06-11T05:40:01.205Z,21.36
2017-06-11T05:41:01.218Z,21.57
2017-06-11T05:42:01.232Z,21.37
2017-06-11T05:43:01.248Z,21.67
2017-06-11T05:44:01.259Z,21.67
2017-06-11T05:45:01.273Z,21.29
2017-06-11T05:46:01.285Z,21.29
2017-06-11T05:47:01.299Z,20.51
2017-06-11T05:48:01.312Z,19.82
2017-06-11T05:49:01.331Z,19.34
2017-06-11T05:50:01.341Z,20.12
2017-06-11T05:51:01.356Z,19.64
2017-06-11T05:52:01.368Z,19.84
2017-06-11T05:53:01.384Z,19.34
2017-06-11T05:54:01.402Z,19.15
2017-06-11T05:55:01.413Z,19.15
2017-06-11T05:56:01.427Z,18.96
2017-06-11T05:57:01.442Z,19.55
2017-06-11T05:58:01.457Z,19.15
2017-06-11T05:59:01.472Z,18.67
2017-06-11T06:00:01.489Z,18.68
2017-06-11T06:01:01.502Z,18.18
2017-06-11T06:02:01.519Z,17.79
2017-06-11T06:03:01.533Z,17.89
2017-06-11T06:04:01.549Z,17.4
2017-06-11T06:05:01.567Z,16.5
2017-06-11T06:06:01.584Z,17.21
2017-06-11T06:07:01.595Z,17.59
2017-06-11T06:08:01.613Z,17.79
2017-06-11T06:09:01.628Z,17.59
2017-06-11T06:10:01.643Z,17.99
2017-06-11T06:11:01.659Z,17.69
2017-06-11T06:12:01.674Z,17.59
2017-06-11T06:13:01.692Z,17.5
2017-06-11T06:14:01.707Z,17.3
2017-06-11T06:15:01.724Z,17.3
2017-06-11T06:16:01.744Z,16.81
2017-06-11T06:17:01.754Z,16.81
2017-06-11T06:18:01.772Z,17
2017-06-11T06:19:01.791Z,17
2017-06-11T06:20:01.809Z,17.4
2017-06-11T06:21:01.820Z,17
2017-06-11T06:22:01.844Z,17.11
2017-06-11T06:23:01.854Z,17.11
2017-06-11T06:24:01.869Z,16.81
2017-06-11T06:25:01.889Z,16.61
2017-06-11T06:26:01.905Z,17.02
2017-06-11T06:27:01.921Z,16.52
2017-06-11T06:28:01.936Z,16.72
2017-06-11T06:29:01.954Z,16.62
2017-06-11T06:30:01.974Z,16.82
2017-06-11T06:31:01.993Z,16.42
2017-06-11T06:32:02.006Z,16.72
2017-06-11T06:33:02.021Z,16.72
2017-06-11T06:34:02.041Z,16.62
2017-06-11T06:35:02.055Z,16.52
2017-06-11T06:36:02.072Z,16.71
2017-06-11T06:37:02.090Z,17.11
2017-06-11T06:38:02.106Z,17
2017-06-11T06:39:02.126Z,16.91
2017-06-11T06:40:02.143Z,17.02
2017-06-11T06:41:02.161Z,16.52
2017-06-11T06:42:02.176Z,16.62
2017-06-11T06:43:02.191Z,16.62
2017-06-11T06:44:02.210Z,16.62
2017-06-11T06:45:01.924Z,16.42
2017-06-11T06:46:02.245Z,16.22
2017-06-11T06:47:02.263Z,16.82
2017-06-11T06:48:02.280Z,16.52
2017-06-11T06:49:02.295Z,16.62
2017-06-11T06:50:02.312Z,16.41
2017-06-11T06:51:02.327Z,16.61
2017-06-11T06:52:02.347Z,16.91
2017-06-11T06:53:02.364Z,16.91
2017-06-11T06:54:02.379Z,16.61
2017-06-11T06:55:02.397Z,16.61
2017-06-11T06:56:02.414Z,16.02
2017-06-11T06:57:02.429Z,15.72
2017-06-11T06:58:02.452Z,15.61
2017-06-11T06:59:02.464Z,16.11
2017-06-11T07:00:02.481Z,16.1
2017-06-11T07:01:02.498Z,16.6
2017-06-11T07:02:02.518Z,16.5
2017-06-11T07:03:02.535Z,16.5
2017-06-11T07:04:02.554Z,16.69
2017-06-11T07:05:02.264Z,16.9
2017-06-11T07:06:02.588Z,16.8
2017-06-11T07:07:02.601Z,16.71
2017-06-11T07:08:02.622Z,16.41
2017-06-11T07:09:02.635Z,16.41
2017-06-11T07:10:02.653Z,16.02
2017-06-11T07:11:02.669Z,15.63
2017-06-11T07:12:02.688Z,15.72
2017-06-11T07:13:02.703Z,15.83
2017-06-11T07:14:02.721Z,16.31
2017-06-11T07:15:02.736Z,15.92
2017-06-11T07:16:02.755Z,15.73
2017-06-11T07:17:02.774Z,15.73
2017-06-11T07:18:02.791Z,15.92
2017-06-11T07:19:02.807Z,15.63
2017-06-11T07:20:02.825Z,15.33
2017-06-11T07:21:02.843Z,15.33
2017-06-11T07:22:02.862Z,14.83
2017-06-11T07:23:02.877Z,14.93
2017-06-11T07:24:02.895Z,15.61
2017-06-11T07:25:02.913Z,15.91
2017-06-11T07:26:02.929Z,16.5
2017-06-11T07:27:02.947Z,16.6
2017-06-11T07:28:02.965Z,16.6
2017-06-11T07:29:02.984Z,16.1
2017-06-11T07:30:03.000Z,16.6
2017-06-11T07:31:03.018Z,16.6
2017-06-11T07:32:03.035Z,16
2017-06-11T07:33:02.748Z,16.2
2017-06-11T07:34:03.069Z,16.88
2017-06-11T07:35:03.086Z,16.88
2017-06-11T07:36:03.105Z,17.17
2017-06-11T07:37:03.124Z,16.38
2017-06-11T07:38:03.138Z,16.38
2017-06-11T07:39:03.159Z,16.48
2017-06-11T07:40:03.176Z,16.68
2017-06-11T07:41:03.192Z,16.57
2017-06-11T07:42:03.207Z,16.57
2017-06-11T07:43:03.225Z,16.47
2017-06-11T07:44:03.243Z,16.47
2017-06-11T07:45:03.263Z,16.57
2017-06-11T07:46:03.277Z,16.47
2017-06-11T07:47:03.296Z,16.57
2017-06-11T07:48:03.041Z,16.56
2017-06-11T07:49:03.329Z,16.77
2017-06-11T07:50:03.346Z,15.58
2017-06-11T07:51:03.364Z,16.27
2017-06-11T07:52:03.380Z,16.36
2017-06-11T07:53:03.412Z,16.46
2017-06-11T07:54:03.415Z,16.66
2017-06-11T07:55:03.431Z,16.66
2017-06-11T07:56:03.448Z,16.66
2017-06-11T07:57:03.165Z,17.14
2017-06-11T07:58:03.488Z,17.63
2017-06-11T07:59:03.500Z,17.63
2017-06-11T08:00:03.529Z,17.14
2017-06-11T08:01:03.535Z,16.94
2017-06-11T08:02:03.550Z,17.73
2017-06-11T08:03:03.567Z,17.63
2017-06-11T08:04:03.583Z,18.51
2017-06-11T08:05:03.600Z,18.41
2017-06-11T08:06:03.617Z,18.8
2017-06-11T08:07:03.635Z,18.41
2017-06-11T08:08:03.652Z,18.71
2017-06-11T08:09:03.675Z,18.61
2017-06-11T08:10:03.684Z,17.82
2017-06-11T08:11:03.702Z,17.62
2017-06-11T08:12:03.718Z,17.82
2017-06-11T08:13:03.738Z,17.62
2017-06-11T08:14:03.751Z,17.62
2017-06-11T08:15:03.471Z,17.23
2017-06-11T08:16:03.787Z,16.83
2017-06-11T08:17:03.500Z,17.13
2017-06-11T08:18:03.818Z,17.61
2017-06-11T08:19:03.836Z,17.52
2017-06-11T08:20:03.857Z,17.81
2017-06-11T08:21:03.868Z,17.81
2017-06-11T08:22:03.887Z,18
2017-06-11T08:23:03.902Z,18.1
2017-06-11T08:24:03.919Z,17.71
2017-06-11T08:25:03.935Z,17.6
2017-06-11T08:26:03.952Z,18.1
2017-06-11T08:27:03.968Z,18.39
2017-06-11T08:28:03.680Z,18.59
2017-06-11T08:29:04.005Z,18.38
2017-06-11T08:30:04.018Z,18.98
2017-06-11T08:31:04.047Z,18.88
2017-06-11T08:32:04.050Z,19.17
2017-06-11T08:33:04.066Z,19.16
2017-06-11T08:34:04.083Z,18.87
2017-06-11T08:35:04.103Z,19.46
2017-06-11T08:36:04.116Z,19.06
2017-06-11T08:37:04.133Z,19.25
2017-06-11T08:38:04.153Z,19.45
2017-06-11T08:39:04.163Z,19.45
2017-06-11T08:40:04.182Z,19.84
2017-06-11T08:41:04.199Z,19.45
2017-06-11T08:42:04.211Z,19.74
2017-06-11T08:43:04.228Z,19.64
2017-06-11T08:44:04.245Z,19.15
2017-06-11T08:45:04.263Z,18.96
2017-06-11T08:46:04.276Z,19.36
2017-06-11T08:47:04.291Z,18.67
2017-06-11T08:48:04.309Z,18.57
2017-06-11T08:49:04.325Z,18.57
2017-06-11T08:50:04.037Z,19.46
2017-06-11T08:51:04.358Z,18.87
2017-06-11T08:52:04.374Z,18.96
2017-06-11T08:53:04.395Z,19.16
2017-06-11T08:54:04.406Z,19.15
2017-06-11T08:55:04.421Z,19.25
2017-06-11T08:56:04.436Z,19.04
2017-06-11T08:57:04.456Z,19.13
2017-06-11T08:58:04.466Z,19.72
2017-06-11T08:59:04.481Z,20.69
2017-06-11T09:00:04.497Z,20.69
2017-06-11T09:01:04.513Z,21.17
2017-06-11T09:02:04.524Z,20.68
2017-06-11T09:03:04.539Z,21.08
2017-06-11T09:04:04.552Z,21.56
2017-06-11T09:05:04.574Z,21.73
2017-06-11T09:06:04.578Z,22.61
2017-06-11T09:07:04.590Z,23.09
2017-06-11T09:08:04.604Z,23.18
2017-06-11T09:09:04.614Z,23.55
2017-06-11T09:10:04.627Z,24.14
2017-06-11T09:11:04.640Z,24.53
2017-06-11T09:12:04.647Z,24.03
2017-06-11T09:13:04.657Z,24.03
2017-06-11T09:14:04.670Z,24.12
2017-06-11T09:15:04.683Z,24.32
2017-06-11T09:16:04.686Z,24.71
2017-06-11T09:17:04.699Z,24.12
2017-06-11T09:18:04.708Z,24.69
2017-06-11T09:19:04.720Z,24.79
2017-06-11T09:20:04.726Z,24
2017-06-11T09:21:04.736Z,24.19
2017-06-11T09:22:04.745Z,24.57
2017-06-11T09:23:04.751Z,24.38
2017-06-11T09:24:04.784Z,24.77
2017-06-11T09:25:04.769Z,25.34
2017-06-11T09:26:04.779Z,26.7
2017-06-11T09:27:04.787Z,26.9
2017-06-11T09:28:04.793Z,26.79
2017-06-11T09:29:04.805Z,26.4
2017-06-11T09:30:04.819Z,26.59
2017-06-11T09:31:04.819Z,27.66
2017-06-11T09:32:04.822Z,27.66
2017-06-11T09:33:04.830Z,27.76
2017-06-11T09:34:04.841Z,28.04
2017-06-11T09:35:04.541Z,28.14
2017-06-11T09:36:04.853Z,27.94
2017-06-11T09:37:04.859Z,28.33
2017-06-11T09:38:04.866Z,27.55
2017-06-11T09:39:05.173Z,27.55
2017-06-11T09:40:04.575Z,27.45
2017-06-11T09:41:04.887Z,27.55
2017-06-11T09:42:04.892Z,27.94
2017-06-11T09:43:04.934Z,28.72
2017-06-11T09:44:04.907Z,28.33
2017-06-11T09:45:04.914Z,28.53
2017-06-11T09:46:04.918Z,29.29
2017-06-11T09:47:04.925Z,29.29
2017-06-11T09:48:04.933Z,29.39
2017-06-11T09:49:04.938Z,29.68
2017-06-11T09:50:04.943Z,28.61
2017-06-11T09:51:04.951Z,29.29
2017-06-11T09:52:04.958Z,29.19
2017-06-11T09:53:04.659Z,29.1
2017-06-11T09:54:04.970Z,29.19
2017-06-11T09:55:04.976Z,28.61
2017-06-11T09:56:04.981Z,28.13
2017-06-11T09:57:04.986Z,27.83
2017-06-11T09:58:04.993Z,28.69
2017-06-11T09:59:05.099Z,29.58
2017-06-11T10:00:05.002Z,29.47
2017-06-11T10:01:05.009Z,29.28
2017-06-11T10:02:05.014Z,29.08
2017-06-11T10:03:05.026Z,29.28
2017-06-11T10:04:04.823Z,29.57
2017-06-11T10:05:04.731Z,29.47
2017-06-11T10:06:05.039Z,30.15
2017-06-11T10:07:05.050Z,29.86
2017-06-11T10:08:05.049Z,30.25
2017-06-11T10:09:05.055Z,29.47
2017-06-11T10:10:05.061Z,28.69
2017-06-11T10:11:05.064Z,28.59
2017-06-11T10:12:05.069Z,28.99
2017-06-11T10:13:05.076Z,29.36
2017-06-11T10:14:05.083Z,29.75
2017-06-11T10:15:05.087Z,29.16
2017-06-11T10:16:05.092Z,28.69
2017-06-11T10:17:05.100Z,28.89
2017-06-11T10:18:05.100Z,28.69
2017-06-11T10:19:05.116Z,29.57
2017-06-11T10:20:04.809Z,28.99
2017-06-11T10:21:05.117Z,29.47
2017-06-11T10:22:05.122Z,28.5
2017-06-11T10:23:05.128Z,28.5
2017-06-11T10:24:05.134Z,29.18
2017-06-11T10:25:04.835Z,29.28
2017-06-11T10:26:05.143Z,29.47
2017-06-11T10:27:05.148Z,29.57
2017-06-11T10:28:05.154Z,29.38
2017-06-11T10:29:05.505Z,29.66
2017-06-11T10:30:05.165Z,28.99
2017-06-11T10:31:05.170Z,29.28
2017-06-11T10:32:05.175Z,29.57
2017-06-11T10:33:05.180Z,29.38
2017-06-11T10:34:05.185Z,29.18
2017-06-11T10:35:05.195Z,29.76
2017-06-11T10:36:05.196Z,30.35
2017-06-11T10:37:05.200Z,30.25
2017-06-11T10:38:05.206Z,29.86
2017-06-11T10:39:05.212Z,29.39
2017-06-11T10:41:05.223Z,28.99
2017-06-11T10:42:05.226Z,28.89
2017-06-11T10:43:05.234Z,28.7
2017-06-11T10:46:05.249Z,30.46
2017-06-11T10:47:05.252Z,30.26
2017-06-11T10:48:05.259Z,29.68
2017-06-11T10:49:05.264Z,29.19
2017-06-11T10:50:04.967Z,29.3
2017-06-11T10:51:05.275Z,29.19
2017-06-11T10:52:05.280Z,29.11
2017-06-11T10:53:05.285Z,28.92
2017-06-11T10:54:05.292Z,28.82
2017-06-11T10:55:04.993Z,27.94
2017-06-11T10:56:05.303Z,28.72
2017-06-11T10:57:05.307Z,29.21
2017-06-11T10:58:05.318Z,29.21
2017-06-11T10:59:05.319Z,29.4
2017-06-11T11:00:05.326Z,29.21
2017-06-11T11:01:05.331Z,29.21
2017-06-11T11:02:05.334Z,28.83
2017-06-11T11:03:05.341Z,28.15
2017-06-11T11:04:05.347Z,28.54
2017-06-11T11:05:05.050Z,28.83
2017-06-11T11:06:05.358Z,29.03
2017-06-11T11:07:05.368Z,29.53
2017-06-11T11:08:05.370Z,28.74
2017-06-11T11:09:05.375Z,28.45
2017-06-11T11:10:05.382Z,28.45
2017-06-11T11:11:05.389Z,27.87
2017-06-11T11:12:05.091Z,27.97
2017-06-11T11:13:05.400Z,28.45
2017-06-11T11:14:05.405Z,28.55
2017-06-11T11:15:05.416Z,28.45
2017-06-11T11:16:05.418Z,28.85
2017-06-11T11:17:05.428Z,27.58
2017-06-11T11:18:05.434Z,27.68
2017-06-11T11:19:05.437Z,26.7
2017-06-11T11:20:05.443Z,26.61
2017-06-11T11:21:05.450Z,27.48
2017-06-11T11:22:05.461Z,26.8
2017-06-11T11:23:05.461Z,27.58
2017-06-11T11:24:05.470Z,27.58
2017-06-11T11:25:05.170Z,28.07
2017-06-11T11:26:05.479Z,28.07
2017-06-11T11:27:05.490Z,28.36
2017-06-11T11:28:05.490Z,27.87
2017-06-11T11:29:05.496Z,27.97
2017-06-11T11:30:05.208Z,27.78
2017-06-11T11:31:05.508Z,27.78
2017-06-11T11:32:05.514Z,28.55
2017-06-11T11:33:05.522Z,28.36
2017-06-11T11:34:05.527Z,28.75
2017-06-11T11:35:05.533Z,27.87
2017-06-11T11:36:05.540Z,28.75
2017-06-11T11:37:05.547Z,28.26
2017-06-11T11:38:05.554Z,27.78
2017-06-11T11:39:05.556Z,26.8
2017-06-11T11:40:05.566Z,27.58
2017-06-11T11:41:05.571Z,27.68
2017-06-11T11:42:05.576Z,27.48
2017-06-11T11:43:05.581Z,26.9
2017-06-11T11:44:05.589Z,26.7
2017-06-11T11:45:05.595Z,26.9
2017-06-11T11:46:05.298Z,26.61
2017-06-11T11:47:05.606Z,26.9
2017-06-11T11:48:05.612Z,27.39
2017-06-11T11:49:05.617Z,27.97
2017-06-11T11:50:05.320Z,27.68
2017-06-11T11:51:05.632Z,27.97
2017-06-11T11:52:05.637Z,27.48
2017-06-11T11:53:05.646Z,26.7
2017-06-11T11:54:05.646Z,27.19
2017-06-11T11:55:05.655Z,26.8
2017-06-11T11:56:05.660Z,26.61
2017-06-11T11:57:05.665Z,27.19
2017-06-11T11:58:05.670Z,27.58
2017-06-11T11:59:05.680Z,28.16
2017-06-11T12:00:05.685Z,27.78
2017-06-11T12:01:05.690Z,27.78
2017-06-11T12:02:05.693Z,27.97
2017-06-11T12:03:05.702Z,28.07
2017-06-11T12:04:05.706Z,27.87
2017-06-11T12:05:05.409Z,28.85
2017-06-11T12:06:05.718Z,28.85
2017-06-11T12:07:05.724Z,28.75
2017-06-11T12:08:05.730Z,27.48
2017-06-11T12:09:05.737Z,27
2017-06-11T12:10:05.742Z,27.87
2017-06-11T12:11:05.747Z,27.58
2017-06-11T12:12:05.451Z,27.87
2017-06-11T12:13:05.759Z,27.97
2017-06-11T12:14:05.767Z,27.87
2017-06-11T12:15:05.772Z,28.07
2017-06-11T12:16:05.776Z,27.48
2017-06-11T12:17:05.482Z,27.58
2017-06-11T12:18:05.793Z,27.97
2017-06-11T12:19:05.797Z,27.78
2017-06-11T12:20:05.499Z,27.97
2017-06-11T12:21:05.512Z,27.97
2017-06-11T12:22:05.816Z,27.68
2017-06-11T12:23:05.820Z,27.78
2017-06-11T12:24:05.825Z,28.26
2017-06-11T12:25:05.829Z,28.94
2017-06-11T12:26:05.836Z,28.75
2017-06-11T12:27:05.842Z,28.85
2017-06-11T12:28:05.847Z,27.68
2017-06-11T12:29:05.857Z,27
2017-06-11T12:30:05.860Z,27.29
2017-06-11T12:31:05.866Z,27.87
2017-06-11T12:32:05.873Z,27.87
2017-06-11T12:33:05.877Z,27.97
2017-06-11T12:34:05.882Z,27.68
2017-06-11T12:35:05.587Z,26.8
2017-06-11T12:36:05.896Z,27.58
2017-06-11T12:37:05.900Z,27.68
2017-06-11T12:38:05.908Z,27.68
2017-06-11T12:39:05.912Z,27.58
2017-06-11T12:40:05.919Z,27.87
2017-06-11T12:41:05.925Z,27.58
2017-06-11T12:42:05.627Z,27.68
2017-06-11T12:43:05.935Z,27.58
2017-06-11T12:44:05.940Z,27.97
2017-06-11T12:45:05.946Z,28.07
2017-06-11T12:46:05.650Z,27.68
2017-06-11T12:47:05.958Z,27
2017-06-11T12:48:05.964Z,27
2017-06-11T12:49:05.970Z,27
2017-06-11T12:50:05.674Z,27
2017-06-11T12:51:05.987Z,27.78
2017-06-11T12:52:05.685Z,27.09
2017-06-11T12:53:05.994Z,27
2017-06-11T12:54:06.004Z,27
2017-06-11T12:55:06.004Z,27.58
2017-06-11T12:56:06.013Z,27.58
2017-06-11T12:57:06.017Z,27.78
2017-06-11T12:58:06.024Z,27.68
2017-06-11T12:59:06.028Z,27.97
2017-06-11T13:00:06.033Z,28.74